createdAt,value
2019-04-27T00:02:23.065Z,3.00
2019-04-27T00:05:17.359Z,2.20
2019-04-27T00:07:56.224Z,2.43
2019-04-27T00:10:30.278Z,2.00
2019-04-27T00:13:02.111Z,3.13
2019-04-27T00:15:43.950Z,2.27
2019-04-27T00:18:30.906Z,3.07
2019-04-27T00:21:11.768Z,2.77
2019-04-27T00:23:42.899Z,3.13
2019-04-27T00:26:13.089Z,2.67
2019-04-27T00:28:43.392Z,3.27
2019-04-27T00:31:13.211Z,2.60
2019-04-27T00:33:43.456Z,3.13
2019-04-27T00:36:19.793Z,4.40
2019-04-27T00:39:07.765Z,3.33
2019-04-27T00:41:36.762Z,3.43
2019-04-27T00:44:06.060Z,2.73
2019-04-27T00:46:34.950Z,3.37
2019-04-27T00:49:03.933Z,2.70
2019-04-27T00:51:33.279Z,3.00
2019-04-27T00:54:02.639Z,5.43
2019-04-27T00:56:55.377Z,2.13
2019-04-27T00:59:55.164Z,1.97
2019-04-27T01:02:43.585Z,2.83
2019-04-27T01:05:17.180Z,2.67
2019-04-27T01:07:46.303Z,2.27
2019-04-27T01:10:15.318Z,1.97
2019-04-27T01:12:44.244Z,2.50
2019-04-27T01:15:13.837Z,2.80
2019-04-27T01:17:42.915Z,2.63
2019-04-27T01:20:12.187Z,1.90
2019-04-27T01:22:41.072Z,1.83
2019-04-27T01:25:10.123Z,2.20
2019-04-27T01:28:01.133Z,1.87
2019-04-27T01:30:33.911Z,2.20
2019-04-27T01:33:02.860Z,2.33
2019-04-27T01:35:31.686Z,2.10
2019-04-27T01:38:00.536Z,1.77
2019-04-27T01:40:30.222Z,2.97
2019-04-27T01:42:59.226Z,2.50
2019-04-27T01:45:28.983Z,2.00
2019-04-27T01:47:59.598Z,2.53
2019-04-27T01:50:29.079Z,2.07
2019-04-27T01:52:58.752Z,2.43
2019-04-27T01:55:27.753Z,2.17
2019-04-27T01:57:58.131Z,2.60
2019-04-27T02:00:49.308Z,3.00
2019-04-27T02:03:21.363Z,2.17
2019-04-27T02:05:53.794Z,2.60
2019-04-27T02:08:22.970Z,2.33
2019-04-27T02:10:51.935Z,2.73
2019-04-27T02:13:21.010Z,2.30
2019-04-27T02:15:50.032Z,2.77
2019-04-27T02:18:19.403Z,2.10
2019-04-27T02:20:49.169Z,2.40
2019-04-27T02:23:19.271Z,2.27
2019-04-27T02:25:49.659Z,3.07
2019-04-27T02:28:29.559Z,2.47
2019-04-27T02:31:19.686Z,2.40
2019-04-27T02:34:00.544Z,2.50
2019-04-27T02:36:30.551Z,2.40
2019-04-27T02:39:00.488Z,2.27
2019-04-27T02:41:29.787Z,2.90
2019-04-27T02:44:04.790Z,2.57
2019-04-27T02:46:33.749Z,2.13
2019-04-27T02:49:06.421Z,1.57
2019-04-27T02:51:59.514Z,2.23
2019-04-27T02:54:29.860Z,2.17
2019-04-27T02:56:59.493Z,2.30
2019-04-27T02:59:30.254Z,1.50
2019-04-27T03:02:04.541Z,3.17
2019-04-27T03:04:33.521Z,2.67
2019-04-27T03:07:02.778Z,1.67
2019-04-27T03:09:31.655Z,2.93
2019-04-27T03:12:01.787Z,2.10
2019-04-27T03:14:55.857Z,2.10
2019-04-27T03:17:31.066Z,1.77
2019-04-27T03:20:19.943Z,1.77
2019-04-27T03:22:51.960Z,1.87
2019-04-27T03:25:47.350Z,1.43
2019-04-27T03:28:19.646Z,1.60
2019-04-27T03:30:51.605Z,1.90
2019-04-27T03:33:22.324Z,4.50
2019-04-27T03:35:52.482Z,2.57
2019-04-27T03:38:19.908Z,1.80
2019-04-27T03:40:50.727Z,1.40
2019-04-27T03:43:22.199Z,1.90
2019-04-27T03:45:52.499Z,2.20
2019-04-27T03:48:21.752Z,1.37
2019-04-27T03:51:12.577Z,1.30
2019-04-27T03:54:00.473Z,1.60
2019-04-27T03:56:33.663Z,1.77
2019-04-27T03:59:05.768Z,1.30
2019-04-27T04:01:34.745Z,1.73
2019-04-27T04:04:03.722Z,1.43
2019-04-27T04:06:32.595Z,2.00
2019-04-27T04:09:01.627Z,1.30
2019-04-27T04:11:41.023Z,1.60
2019-04-27T04:14:13.148Z,2.03
2019-04-27T04:16:49.567Z,1.37
2019-04-27T04:19:19.670Z,1.50
2019-04-27T04:21:50.355Z,1.90
2019-04-27T04:24:20.053Z,2.10
2019-04-27T04:26:50.272Z,2.17
2019-04-27T04:29:20.191Z,1.70
2019-04-27T04:31:50.310Z,1.60
2019-04-27T04:34:19.966Z,2.63
2019-04-27T04:36:50.357Z,1.60
2019-04-27T04:39:19.917Z,2.23
2019-04-27T04:42:10.272Z,1.73
2019-04-27T04:45:00.480Z,1.87
2019-04-27T04:47:43.556Z,1.83
2019-04-27T04:50:15.240Z,1.83
2019-04-27T04:52:43.241Z,3.27
2019-04-27T04:55:12.123Z,2.00
2019-04-27T04:57:40.983Z,2.10
2019-04-27T05:00:10.313Z,2.60
2019-04-27T05:02:39.806Z,2.27
2019-04-27T05:05:09.417Z,2.80
2019-04-27T05:07:39.204Z,2.60
2019-04-27T05:10:09.037Z,4.90
2019-04-27T05:12:38.712Z,2.87
2019-04-27T05:15:09.137Z,3.50
2019-04-27T05:17:39.762Z,2.53
2019-04-27T05:20:26.309Z,2.43
2019-04-27T05:22:53.200Z,2.43
2019-04-27T05:25:22.043Z,2.80
2019-04-27T05:27:51.799Z,1.70
2019-04-27T05:30:20.632Z,2.50
2019-04-27T05:32:49.584Z,2.30
2019-04-27T05:35:20.208Z,1.93
2019-04-27T05:37:49.240Z,4.10
2019-04-27T05:40:18.932Z,2.70
2019-04-27T05:42:48.895Z,2.73
2019-04-27T05:45:57.756Z,2.90
2019-04-27T05:48:30.712Z,2.77
2019-04-27T05:51:01.889Z,3.10
2019-04-27T05:53:30.238Z,3.03
2019-04-27T05:56:00.183Z,3.43
2019-04-27T05:58:29.139Z,3.50
2019-04-27T06:00:59.490Z,4.00
2019-04-27T06:03:29.676Z,3.90
2019-04-27T06:06:01.425Z,3.83
2019-04-27T06:08:29.568Z,3.70
2019-04-27T06:10:59.228Z,3.80
2019-04-27T06:13:30.758Z,3.93
2019-04-27T06:15:59.340Z,4.53
2019-04-27T06:18:29.392Z,4.10
2019-04-27T06:20:59.854Z,4.90
2019-04-27T06:23:29.038Z,4.30
2019-04-27T06:26:01.453Z,4.03
2019-04-27T06:28:29.325Z,4.33
2019-04-27T06:30:59.535Z,3.67
2019-04-27T06:33:34.273Z,3.77
2019-04-27T06:36:01.811Z,3.47
2019-04-27T06:38:31.212Z,4.10
2019-04-27T06:41:01.446Z,3.93
2019-04-27T06:43:30.423Z,3.30
2019-04-27T06:45:59.410Z,3.40
2019-04-27T06:48:29.636Z,3.17
2019-04-27T06:51:03.659Z,4.10
2019-04-27T06:53:29.210Z,3.57
2019-04-27T06:55:58.639Z,3.77
2019-04-27T06:58:29.130Z,3.63
2019-04-27T07:00:59.619Z,4.30
2019-04-27T07:03:28.890Z,3.57
2019-04-27T07:05:58.899Z,3.53
2019-04-27T07:08:30.595Z,3.73
2019-04-27T07:10:59.163Z,3.23
2019-04-27T07:13:29.105Z,3.20
2019-04-27T07:15:59.702Z,3.70
2019-04-27T07:18:28.750Z,3.93
2019-04-27T07:20:58.676Z,3.70
2019-04-27T07:23:29.301Z,4.17
2019-04-27T07:25:59.903Z,4.30
2019-04-27T07:28:28.949Z,4.03
2019-04-27T07:30:58.676Z,3.47
2019-04-27T07:33:29.633Z,4.50
2019-04-27T07:35:59.049Z,4.90
2019-04-27T07:38:29.366Z,5.00
2019-04-27T07:40:58.735Z,4.47
2019-04-27T07:43:43.005Z,4.60
2019-04-27T07:46:11.855Z,5.00
2019-04-27T07:48:40.674Z,5.00
2019-04-27T07:51:09.581Z,4.70
2019-04-27T07:53:38.998Z,4.37
2019-04-27T07:56:09.353Z,4.73
2019-04-27T07:58:39.613Z,4.57
2019-04-27T08:01:09.303Z,5.30
2019-04-27T08:03:39.039Z,5.53
2019-04-27T08:06:08.461Z,5.63
2019-04-27T08:08:39.670Z,5.17
2019-04-27T08:11:09.150Z,5.00
2019-04-27T08:13:39.476Z,5.73
2019-04-27T08:16:08.736Z,6.07
2019-04-27T08:18:39.504Z,4.70
2019-04-27T08:21:20.623Z,6.13
2019-04-27T08:23:49.464Z,5.47
2019-04-27T08:26:29.442Z,5.80
2019-04-27T08:29:08.619Z,7.00
2019-04-27T08:31:45.800Z,5.27
2019-04-27T08:34:33.259Z,5.50
2019-04-27T08:37:02.460Z,6.70
2019-04-27T08:39:31.491Z,5.53
2019-04-27T08:42:00.462Z,6.03
2019-04-27T08:44:31.789Z,6.10
2019-04-27T08:47:02.262Z,7.83
2019-04-27T08:49:31.187Z,7.57
2019-04-27T08:52:01.938Z,7.30
2019-04-27T08:54:31.107Z,6.87
2019-04-27T08:57:01.774Z,7.70
2019-04-27T08:59:30.798Z,6.63
2019-04-27T09:01:59.795Z,7.20
2019-04-27T09:04:28.909Z,7.00
2019-04-27T09:07:02.781Z,6.83
2019-04-27T09:12:47.169Z,6.20
2019-04-27T09:15:20.815Z,5.70
2019-04-27T09:17:52.271Z,6.37
2019-04-27T09:20:28.681Z,6.47
2019-04-27T09:22:59.226Z,5.53
2019-04-27T09:28:03.204Z,6.60
2019-04-27T09:30:32.097Z,6.47
2019-04-27T09:33:01.063Z,6.40
2019-04-27T09:35:30.296Z,6.47
2019-04-27T09:37:59.241Z,5.17
2019-04-27T09:40:28.172Z,2.00
2019-04-27T09:42:57.331Z,1.27
2019-04-27T09:45:27.130Z,1.13
2019-04-27T09:47:56.480Z,1.40
2019-04-27T09:50:27.994Z,1.40
2019-04-27T09:52:56.249Z,2.07
2019-04-27T09:55:26.345Z,2.10
2019-04-27T09:57:56.914Z,2.77
2019-04-27T10:00:27.787Z,1.73
2019-04-27T10:02:57.333Z,1.57
2019-04-27T10:05:26.491Z,1.70
2019-04-27T10:07:56.963Z,1.50
2019-04-27T10:10:26.758Z,2.10
2019-04-27T10:12:56.789Z,1.47
2019-04-27T10:15:26.763Z,2.03
2019-04-27T10:17:57.687Z,2.47
2019-04-27T10:20:26.772Z,1.63
2019-04-27T10:22:56.485Z,2.60
2019-04-27T10:28:01.564Z,1.80
2019-04-27T10:30:31.309Z,1.20
2019-04-27T10:33:00.665Z,1.30
2019-04-27T10:35:29.546Z,1.70
2019-04-27T10:37:58.470Z,2.00
2019-04-27T10:40:27.368Z,2.13
2019-04-27T10:42:56.329Z,2.10
2019-04-27T10:45:25.870Z,2.20
2019-04-27T10:47:57.111Z,1.60
2019-04-27T10:50:26.555Z,1.57
2019-04-27T10:52:56.809Z,1.37
2019-04-27T10:55:26.587Z,1.80
2019-04-27T10:57:55.442Z,1.90
2019-04-27T11:00:31.349Z,2.40
2019-04-27T11:03:00.177Z,2.00
2019-04-27T11:05:35.854Z,1.43
2019-04-27T11:08:06.580Z,1.50
2019-04-27T11:10:36.052Z,2.00
2019-04-27T11:13:06.229Z,2.33
2019-04-27T11:15:37.067Z,2.83
2019-04-27T11:18:06.397Z,1.70
2019-04-27T11:20:36.258Z,1.70
2019-04-27T11:23:09.315Z,2.10
2019-04-27T11:25:36.540Z,3.00
2019-04-27T11:28:05.842Z,1.80
2019-04-27T11:30:34.904Z,2.20
2019-04-27T11:33:06.137Z,2.00
2019-04-27T11:35:53.752Z,2.10
2019-04-27T11:38:22.884Z,2.37
2019-04-27T11:40:51.823Z,2.90
2019-04-27T11:43:20.727Z,3.07
2019-04-27T11:45:49.646Z,3.20
2019-04-27T11:48:18.576Z,2.63
2019-04-27T11:50:47.615Z,2.63
2019-04-27T11:53:22.836Z,3.30
2019-04-27T11:55:47.241Z,1.97
2019-04-27T11:58:16.628Z,1.93
2019-04-27T12:00:45.654Z,1.77
2019-04-27T12:03:14.565Z,1.63
2019-04-27T12:05:43.469Z,2.33
2019-04-27T12:08:12.307Z,2.33
2019-04-27T12:10:41.315Z,3.13
2019-04-27T12:13:10.211Z,2.13
2019-04-27T12:15:39.173Z,2.10
2019-04-27T12:18:09.057Z,3.27
2019-04-27T12:20:38.096Z,1.50
2019-04-27T12:23:07.940Z,1.53
2019-04-27T12:25:37.404Z,1.37
2019-04-27T12:28:26.985Z,1.60
2019-04-27T12:31:22.806Z,2.17
2019-04-27T12:33:51.971Z,1.40
2019-04-27T12:36:20.965Z,1.30
2019-04-27T12:38:50.031Z,1.00
2019-04-27T12:41:19.535Z,2.00
2019-04-27T12:43:49.323Z,1.73
2019-04-27T12:46:18.236Z,1.00
2019-04-27T12:48:47.152Z,0.97
2019-04-27T12:51:16.178Z,1.70
2019-04-27T12:53:55.968Z,1.00
2019-04-27T12:56:34.354Z,1.10
2019-04-27T12:59:14.100Z,2.03
2019-04-27T13:01:42.923Z,1.20
2019-04-27T13:04:11.896Z,1.53
2019-04-27T13:06:40.903Z,0.87
2019-04-27T13:09:10.158Z,1.20
2019-04-27T13:11:38.963Z,1.30
2019-04-27T13:14:08.071Z,1.80
2019-04-27T13:16:36.939Z,1.00
2019-04-27T13:19:06.218Z,1.60
2019-04-27T13:21:36.560Z,1.00
2019-04-27T13:24:06.963Z,1.57
2019-04-27T13:26:37.981Z,1.63
2019-04-27T13:29:07.205Z,1.27
2019-04-27T13:31:36.912Z,1.10
2019-04-27T13:34:05.969Z,1.43
2019-04-27T13:36:36.645Z,1.07
2019-04-27T13:39:07.082Z,1.73
2019-04-27T13:41:36.057Z,1.77
2019-04-27T13:44:06.549Z,1.60
2019-04-27T13:46:53.487Z,2.03
2019-04-27T13:49:34.074Z,1.67
2019-04-27T13:52:11.703Z,1.87
2019-04-27T13:54:40.767Z,2.10
2019-04-27T13:57:09.735Z,3.00
2019-04-27T13:59:38.853Z,3.20
2019-04-27T14:02:07.932Z,2.63
2019-04-27T14:04:36.886Z,1.73
2019-04-27T14:07:05.884Z,2.50
2019-04-27T14:09:34.847Z,1.90
2019-04-27T14:12:22.358Z,1.73
2019-04-27T14:14:51.561Z,1.13
2019-04-27T14:17:20.630Z,2.03
2019-04-27T14:19:49.526Z,1.53
2019-04-27T14:22:18.617Z,1.47
2019-04-27T14:24:48.729Z,0.83
2019-04-27T14:27:18.867Z,1.43
2019-04-27T14:29:48.961Z,1.10
2019-04-27T14:32:18.761Z,1.00
2019-04-27T14:34:50.055Z,1.10
2019-04-27T14:37:18.608Z,2.23
2019-04-27T14:39:48.068Z,1.70
2019-04-27T14:42:18.989Z,1.73
2019-04-27T14:44:48.956Z,1.97
2019-04-27T14:47:18.790Z,2.40
2019-04-27T14:49:49.074Z,2.60
2019-04-27T14:52:18.794Z,1.10
2019-04-27T14:54:50.672Z,2.30
2019-04-27T14:57:20.436Z,1.53
2019-04-27T14:59:50.249Z,1.60
2019-04-27T15:02:19.281Z,2.23
2019-04-27T15:04:49.717Z,1.60
2019-04-27T15:07:18.796Z,1.70
2019-04-27T15:09:49.668Z,1.10
2019-04-27T15:12:18.359Z,2.30
2019-04-27T15:14:47.667Z,1.63
2019-04-27T15:17:17.614Z,1.97
2019-04-27T15:19:53.957Z,1.83
2019-04-27T15:22:27.167Z,2.33
2019-04-27T15:25:09.396Z,2.50
2019-04-27T15:27:42.133Z,3.00
2019-04-27T15:30:17.788Z,3.80
2019-04-27T15:33:10.492Z,3.13
2019-04-27T15:35:44.123Z,3.00
2019-04-27T15:38:18.676Z,2.80
2019-04-27T15:41:16.265Z,2.43
2019-04-27T15:43:46.239Z,2.27
2019-04-27T15:46:15.447Z,1.97
2019-04-27T15:48:44.467Z,2.40
2019-04-27T15:51:17.567Z,1.00
2019-04-27T15:53:45.951Z,1.63
2019-04-27T15:56:14.873Z,2.43
2019-04-27T15:58:44.119Z,1.93
2019-04-27T16:01:13.297Z,1.50
2019-04-27T16:03:42.268Z,1.70
2019-04-27T16:06:11.972Z,2.40
2019-04-27T16:08:44.926Z,3.20
2019-04-27T16:11:16.508Z,1.97
2019-04-27T16:13:42.827Z,2.63
2019-04-27T16:16:11.702Z,1.90
2019-04-27T16:18:40.634Z,2.20
2019-04-27T16:21:10.882Z,2.20
2019-04-27T16:23:43.041Z,1.90
2019-04-27T16:26:15.005Z,3.03
2019-04-27T16:28:43.032Z,1.20
2019-04-27T16:31:12.127Z,1.63
2019-04-27T16:33:41.268Z,1.60
2019-04-27T16:36:10.413Z,1.57
2019-04-27T16:38:52.695Z,1.10
2019-04-27T16:41:21.702Z,1.87
2019-04-27T16:43:50.752Z,1.93
2019-04-27T16:46:21.379Z,2.30
2019-04-27T16:48:50.591Z,1.97
2019-04-27T16:51:19.583Z,1.90
2019-04-27T16:53:49.099Z,1.90
2019-04-27T16:56:20.649Z,1.60
2019-04-27T16:58:56.696Z,2.20
2019-04-27T17:01:23.162Z,2.50
2019-04-27T17:03:52.572Z,2.83
2019-04-27T17:06:21.670Z,3.10
2019-04-27T17:08:50.665Z,2.30
2019-04-27T17:11:19.879Z,3.07
2019-04-27T17:13:53.848Z,1.37
2019-04-27T17:16:42.070Z,1.60
2019-04-27T17:19:15.687Z,2.20
2019-04-27T17:21:44.911Z,1.70
2019-04-27T17:24:18.014Z,1.67
2019-04-27T17:26:47.889Z,2.20
2019-04-27T17:29:20.279Z,2.50
2019-04-27T17:31:54.467Z,3.13
2019-04-27T17:34:25.392Z,3.40
2019-04-27T17:36:54.815Z,2.20
2019-04-27T17:39:23.515Z,2.57
2019-04-27T17:41:53.632Z,3.20
2019-04-27T17:44:23.327Z,2.13
2019-04-27T17:46:52.813Z,4.20
2019-04-27T17:49:21.846Z,2.83
2019-04-27T17:51:51.048Z,2.13
2019-04-27T17:54:19.963Z,2.13
2019-04-27T17:56:52.307Z,3.10
2019-04-27T17:59:20.891Z,2.80
2019-04-27T18:01:53.915Z,4.23
2019-04-27T18:04:21.079Z,2.70
2019-04-27T18:06:50.292Z,3.30
2019-04-27T18:09:19.768Z,3.30
2019-04-27T18:11:50.364Z,2.87
2019-04-27T18:14:19.567Z,2.63
2019-04-27T18:16:48.575Z,3.47
2019-04-27T18:19:35.438Z,2.87
2019-04-27T18:22:06.077Z,3.10
2019-04-27T18:25:06.272Z,3.47
2019-04-27T18:27:53.111Z,3.30
2019-04-27T18:30:54.583Z,2.80
2019-04-27T18:33:23.658Z,2.67
2019-04-27T18:35:52.610Z,3.77
2019-04-27T18:38:21.546Z,2.97
2019-04-27T18:40:50.583Z,2.17
2019-04-27T18:43:19.605Z,2.00
2019-04-27T18:45:48.767Z,2.10
2019-04-27T18:48:24.149Z,3.10
2019-04-27T18:51:08.555Z,3.47
2019-04-27T18:53:37.812Z,2.83
2019-04-27T18:56:10.140Z,3.27
2019-04-27T18:58:37.450Z,2.97
2019-04-27T19:01:08.509Z,4.23
2019-04-27T19:03:39.059Z,4.03
2019-04-27T19:06:08.509Z,4.77
2019-04-27T19:08:38.611Z,3.87
2019-04-27T19:11:09.311Z,5.17
2019-04-27T19:13:40.161Z,3.87
2019-04-27T19:16:09.813Z,3.43
2019-04-27T19:18:39.891Z,4.90
2019-04-27T19:21:09.443Z,5.33
2019-04-27T19:23:40.278Z,6.20
2019-04-27T19:26:15.689Z,4.50
2019-04-27T19:28:53.906Z,3.67
2019-04-27T19:31:29.023Z,4.87
2019-04-27T19:33:58.096Z,4.00
2019-04-27T19:36:27.921Z,4.53
2019-04-27T19:38:58.409Z,3.27
2019-04-27T19:41:28.837Z,3.63
2019-04-27T19:43:59.751Z,3.17
2019-04-27T19:46:30.397Z,3.83
2019-04-27T19:48:59.277Z,3.97
2019-04-27T19:51:28.352Z,3.40
2019-04-27T19:53:58.149Z,4.50
2019-04-27T19:56:28.384Z,3.80
2019-04-27T19:58:59.323Z,3.30
2019-04-27T20:01:34.831Z,3.33
2019-04-27T20:04:23.011Z,3.50
2019-04-27T20:06:52.095Z,4.50
2019-04-27T20:09:29.274Z,4.50
2019-04-27T20:11:58.223Z,4.00
2019-04-27T20:14:27.291Z,3.80
2019-04-27T20:16:56.326Z,3.70
2019-04-27T20:19:25.290Z,4.30
2019-04-27T20:21:54.261Z,4.63
2019-04-27T20:24:23.176Z,3.70
2019-04-27T20:26:52.129Z,3.87
2019-04-27T20:29:21.754Z,3.93
2019-04-27T20:31:51.286Z,3.80
2019-04-27T20:34:20.900Z,4.07
2019-04-27T20:36:51.286Z,4.80
2019-04-27T20:39:21.851Z,3.87
2019-04-27T20:41:51.216Z,4.10
2019-04-27T20:44:21.089Z,4.47
2019-04-27T20:46:51.336Z,4.47
2019-04-27T20:49:21.185Z,4.47
2019-04-27T20:52:12.295Z,4.20
2019-04-27T20:54:41.574Z,3.87
2019-04-27T20:57:11.559Z,4.47
2019-04-27T20:59:40.771Z,2.70
2019-04-27T21:02:28.039Z,3.57
2019-04-27T21:05:20.969Z,4.20
2019-04-27T21:07:52.925Z,4.20
2019-04-27T21:10:21.833Z,3.43
2019-04-27T21:12:51.864Z,4.50
2019-04-27T21:15:21.461Z,4.90
2019-04-27T21:17:51.240Z,3.13
2019-04-27T21:20:21.933Z,4.57
2019-04-27T21:22:53.323Z,5.80
2019-04-27T21:25:21.945Z,3.83
2019-04-27T21:27:51.375Z,4.17
2019-04-27T21:30:21.316Z,4.10
2019-04-27T21:32:50.941Z,3.60
2019-04-27T21:35:21.170Z,4.10
2019-04-27T21:37:51.203Z,3.40
2019-04-27T21:40:21.723Z,4.23
2019-04-27T21:42:51.398Z,4.00
2019-04-27T21:45:21.716Z,3.57
2019-04-27T21:47:51.901Z,5.30
2019-04-27T21:50:23.294Z,3.60
2019-04-27T21:53:03.708Z,4.37
2019-04-27T21:55:32.794Z,4.83
2019-04-27T21:58:01.768Z,5.33
2019-04-27T22:01:03.574Z,3.87
2019-04-27T22:03:32.623Z,4.40
2019-04-27T22:06:01.853Z,3.10
2019-04-27T22:08:31.839Z,3.70
2019-04-27T22:11:01.511Z,4.20
2019-04-27T22:13:31.189Z,4.73
2019-04-27T22:16:00.219Z,5.20
2019-04-27T22:18:29.182Z,5.43
2019-04-27T22:20:58.126Z,6.10
2019-04-27T22:23:52.218Z,4.47
2019-04-27T22:26:21.703Z,5.50
2019-04-27T22:28:52.029Z,5.30
2019-04-27T22:31:21.339Z,4.00
2019-04-27T22:33:52.519Z,5.77
2019-04-27T22:36:21.284Z,5.10
2019-04-27T22:38:51.582Z,4.80
2019-04-27T22:41:41.587Z,3.63
2019-04-27T22:44:38.232Z,4.00
2019-04-27T22:47:07.195Z,3.00
2019-04-27T22:49:36.098Z,3.60
2019-04-27T22:52:05.128Z,4.03
2019-04-27T22:54:34.510Z,4.37
2019-04-27T22:57:11.247Z,4.40
2019-04-27T23:00:03.740Z,3.77
2019-04-27T23:02:48.679Z,5.30
2019-04-27T23:05:17.663Z,4.30
2019-04-27T23:07:46.687Z,3.87
2019-04-27T23:10:15.680Z,4.17
2019-04-27T23:12:44.684Z,4.17
2019-04-27T23:15:17.521Z,3.70
2019-04-27T23:17:52.052Z,3.27
2019-04-27T23:20:21.078Z,2.27
2019-04-27T23:22:49.993Z,3.60
2019-04-27T23:25:18.910Z,2.87
2019-04-27T23:27:47.739Z,2.83
2019-04-27T23:30:17.314Z,3.37
2019-04-27T23:32:47.808Z,5.40
2019-04-27T23:35:16.769Z,3.83
2019-04-27T23:37:45.883Z,4.30
2019-04-27T23:40:15.059Z,5.30
2019-04-27T23:42:44.134Z,3.57
2019-04-27T23:45:14.319Z,4.43
2019-04-27T23:47:43.194Z,3.47
2019-04-27T23:50:12.483Z,5.03
2019-04-27T23:53:01.961Z,3.63
2019-04-27T23:55:32.990Z,5.00
2019-04-27T23:58:01.914Z,4.73
